createdAt,value
2022-12-18T00:02:00.409Z,8.61
2022-12-18T00:04:28.867Z,8.59
2022-12-18T00:06:56.336Z,8.61
2022-12-18T00:09:24.709Z,8.62
2022-12-18T00:11:52.215Z,8.65
2022-12-18T00:14:19.616Z,8.62
2022-12-18T00:16:47.697Z,8.62
2022-12-18T00:19:16.278Z,8.55
2022-12-18T00:21:44.755Z,8.49
2022-12-18T00:24:13.060Z,8.49
2022-12-18T00:26:40.636Z,8.50
2022-12-18T00:29:11.837Z,8.55
2022-12-18T00:31:39.290Z,8.60
2022-12-18T00:34:07.200Z,8.62
2022-12-18T00:36:36.396Z,8.63
2022-12-18T00:39:06.560Z,8.64
2022-12-18T00:41:34.100Z,8.54
2022-12-18T00:44:01.522Z,8.65
2022-12-18T00:46:28.723Z,8.67
2022-12-18T00:48:55.920Z,8.69
2022-12-18T00:51:24.619Z,8.72
2022-12-18T00:53:53.740Z,8.76
2022-12-18T00:56:20.821Z,8.75
2022-12-18T00:58:47.940Z,8.77
2022-12-18T01:01:15.260Z,8.73
2022-12-18T01:03:42.481Z,8.74
2022-12-18T01:06:12.180Z,8.77
2022-12-18T01:08:40.205Z,8.84
2022-12-18T01:11:11.325Z,8.89
2022-12-18T01:13:38.976Z,8.95
2022-12-18T01:16:07.005Z,8.72
2022-12-18T01:18:34.239Z,8.87
2022-12-18T01:21:01.341Z,8.90
2022-12-18T01:23:28.461Z,8.88
2022-12-18T01:25:55.559Z,8.94
2022-12-18T01:28:24.080Z,8.90
2022-12-18T01:30:51.113Z,8.93
2022-12-18T01:33:18.161Z,8.95
2022-12-18T01:35:45.282Z,8.91
2022-12-18T01:38:12.440Z,8.89
2022-12-18T01:40:39.580Z,8.84
2022-12-18T01:43:06.760Z,8.81
2022-12-18T01:45:35.430Z,8.77
2022-12-18T01:48:06.309Z,8.79
2022-12-18T01:50:37.982Z,8.82
2022-12-18T01:53:10.941Z,8.83
2022-12-18T01:55:46.172Z,8.80
2022-12-18T01:58:13.980Z,8.84
2022-12-18T02:00:43.164Z,8.80
2022-12-18T02:03:10.689Z,8.79
2022-12-18T02:05:46.819Z,8.79
2022-12-18T02:08:21.720Z,8.75
2022-12-18T02:11:02.410Z,8.82
2022-12-18T02:13:37.506Z,8.80
2022-12-18T02:16:20.288Z,8.81
2022-12-18T02:18:52.765Z,8.80
2022-12-18T02:21:32.719Z,8.81
2022-12-18T02:24:18.964Z,8.92
2022-12-18T02:26:52.620Z,8.98
2022-12-18T02:29:24.933Z,8.90
2022-12-18T02:31:56.001Z,8.87
2022-12-18T02:34:29.121Z,8.85
2022-12-18T02:37:02.214Z,8.79
2022-12-18T02:39:33.400Z,8.75
2022-12-18T02:42:03.304Z,8.73
2022-12-18T02:44:30.422Z,8.67
2022-12-18T02:46:57.779Z,8.66
2022-12-18T02:49:38.362Z,8.63
2022-12-18T02:52:15.410Z,8.68
2022-12-18T02:54:58.777Z,8.67
2022-12-18T02:57:38.059Z,8.64
2022-12-18T03:00:11.200Z,8.69
2022-12-18T03:02:46.490Z,8.69
2022-12-18T03:05:18.488Z,8.67
2022-12-18T03:07:54.524Z,8.73
2022-12-18T03:10:29.519Z,8.81
2022-12-18T03:13:05.722Z,8.83
2022-12-18T03:15:38.560Z,8.86
2022-12-18T03:18:11.979Z,9.18
2022-12-18T03:20:45.661Z,9.29
2022-12-18T03:23:18.699Z,9.33
2022-12-18T03:25:50.222Z,9.43
2022-12-18T03:28:23.839Z,9.50
2022-12-18T03:30:57.697Z,9.51
2022-12-18T03:33:30.639Z,9.41
2022-12-18T03:35:57.920Z,9.40
2022-12-18T03:38:25.092Z,9.43
2022-12-18T03:41:00.723Z,9.36
2022-12-18T03:43:41.244Z,9.22
2022-12-18T03:46:16.672Z,9.29
2022-12-18T03:48:52.481Z,9.24
2022-12-18T03:51:30.304Z,9.17
2022-12-18T03:54:01.461Z,9.24
2022-12-18T03:56:33.481Z,9.18
2022-12-18T03:59:05.921Z,9.22
2022-12-18T04:01:38.435Z,9.17
2022-12-18T04:04:08.041Z,9.19
2022-12-18T04:06:36.899Z,9.17
2022-12-18T04:09:05.900Z,9.23
2022-12-18T04:11:33.040Z,9.31
2022-12-18T04:14:04.758Z,9.29
2022-12-18T04:16:34.320Z,9.42
2022-12-18T04:19:01.420Z,9.42
2022-12-18T04:21:28.879Z,9.29
2022-12-18T04:23:56.140Z,9.28
2022-12-18T04:26:23.784Z,9.19
2022-12-18T04:28:50.981Z,9.20
2022-12-18T04:31:19.647Z,9.06
2022-12-18T04:33:46.880Z,9.08
2022-12-18T04:36:13.999Z,9.01
2022-12-18T04:38:41.180Z,8.94
2022-12-18T04:41:08.403Z,8.93
2022-12-18T04:43:35.680Z,8.94
2022-12-18T04:46:04.120Z,9.06
2022-12-18T04:48:33.840Z,9.09
2022-12-18T04:51:00.980Z,9.09
2022-12-18T04:53:28.061Z,9.18
2022-12-18T04:56:04.980Z,9.11
2022-12-18T04:58:32.182Z,9.15
2022-12-18T05:00:59.440Z,9.17
2022-12-18T05:03:26.566Z,9.20
2022-12-18T05:05:55.200Z,9.16
2022-12-18T05:08:22.763Z,9.07
2022-12-18T05:10:49.913Z,9.11
2022-12-18T05:13:17.020Z,9.22
2022-12-18T05:15:44.244Z,9.17
2022-12-18T05:18:11.379Z,9.13
2022-12-18T05:20:38.501Z,9.20
2022-12-18T05:23:07.110Z,9.17
2022-12-18T05:25:34.160Z,9.11
2022-12-18T05:28:01.261Z,9.12
2022-12-18T05:30:28.380Z,9.09
2022-12-18T05:32:55.664Z,9.15
2022-12-18T05:35:22.759Z,9.20
2022-12-18T05:37:49.842Z,9.12
2022-12-18T05:40:18.561Z,9.06
2022-12-18T05:42:45.662Z,9.09
2022-12-18T05:45:12.762Z,9.06
2022-12-18T05:47:39.859Z,9.03
2022-12-18T05:50:08.800Z,9.03
2022-12-18T05:52:35.964Z,9.09
2022-12-18T05:55:03.136Z,9.05
2022-12-18T05:57:31.888Z,9.04
2022-12-18T05:59:59.040Z,9.11
2022-12-18T06:02:26.316Z,9.13
2022-12-18T06:04:53.520Z,9.11
2022-12-18T06:07:20.720Z,9.09
2022-12-18T06:09:47.919Z,9.08
2022-12-18T06:12:15.020Z,8.99
2022-12-18T06:14:43.685Z,9.10
2022-12-18T06:17:10.743Z,9.09
2022-12-18T06:19:37.961Z,9.09
2022-12-18T06:22:05.201Z,9.04
2022-12-18T06:24:32.276Z,9.12
2022-12-18T06:26:59.519Z,9.07
2022-12-18T06:29:26.580Z,9.12
2022-12-18T06:31:55.156Z,9.17
2022-12-18T06:34:23.972Z,9.07
2022-12-18T06:36:51.020Z,9.02
2022-12-18T06:39:18.240Z,9.14
2022-12-18T06:41:45.520Z,9.18
2022-12-18T06:44:12.734Z,9.11
2022-12-18T06:46:39.880Z,9.11
2022-12-18T06:49:08.480Z,9.08
2022-12-18T06:51:35.649Z,9.06
2022-12-18T06:54:02.742Z,9.01
2022-12-18T06:56:30.460Z,9.08
2022-12-18T06:58:57.540Z,9.14
2022-12-18T07:01:24.875Z,9.10
2022-12-18T07:03:54.189Z,9.16
2022-12-18T07:06:25.501Z,9.20
2022-12-18T07:08:54.779Z,9.14
2022-12-18T07:11:21.861Z,8.96
2022-12-18T07:13:49.332Z,8.95
2022-12-18T07:16:24.637Z,8.97
2022-12-18T07:18:52.402Z,8.95
2022-12-18T07:21:23.252Z,8.96
2022-12-18T07:23:50.645Z,8.96
2022-12-18T07:26:20.006Z,9.03
2022-12-18T07:28:48.019Z,9.01
2022-12-18T07:31:18.120Z,9.02
2022-12-18T07:33:46.681Z,9.00
2022-12-18T07:36:14.779Z,9.04
2022-12-18T07:38:43.380Z,9.00
2022-12-18T07:41:13.224Z,9.06
2022-12-18T07:43:42.511Z,9.15
2022-12-18T07:46:11.166Z,9.14
2022-12-18T07:48:40.740Z,10.42
2022-12-18T07:51:08.700Z,11.06
2022-12-18T07:53:37.441Z,11.68
2022-12-18T07:58:56.962Z,12.24
2022-12-18T08:01:24.788Z,12.38
2022-12-18T08:03:52.565Z,12.40
2022-12-18T08:06:22.535Z,12.29
2022-12-18T08:08:53.120Z,11.48
2022-12-18T08:11:22.661Z,11.09
2022-12-18T08:13:49.943Z,10.90
2022-12-18T08:16:18.493Z,10.62
2022-12-18T08:18:45.941Z,10.45
2022-12-18T08:21:15.928Z,10.20
2022-12-18T08:23:44.004Z,10.08
2022-12-18T08:26:11.360Z,9.99
2022-12-18T08:28:40.281Z,9.89
2022-12-18T08:31:08.317Z,9.82
2022-12-18T08:33:37.845Z,9.75
2022-12-18T08:36:06.821Z,9.81
2022-12-18T08:38:34.163Z,9.71
2022-12-18T08:41:02.080Z,9.64
2022-12-18T08:43:29.470Z,9.74
2022-12-18T08:45:58.325Z,9.76
2022-12-18T08:48:25.425Z,9.82
2022-12-18T08:50:56.481Z,9.90
2022-12-18T08:53:23.721Z,10.00
2022-12-18T08:55:51.302Z,9.92
2022-12-18T08:58:18.522Z,9.93
2022-12-18T09:00:45.904Z,9.94
2022-12-18T09:03:16.453Z,10.06
2022-12-18T09:05:44.721Z,10.06
2022-12-18T09:08:12.181Z,10.01
2022-12-18T09:10:43.741Z,9.98
2022-12-18T09:13:11.337Z,10.12
2022-12-18T09:15:42.760Z,10.15
2022-12-18T09:18:10.322Z,10.32
2022-12-18T09:20:38.921Z,10.26
2022-12-18T09:23:07.321Z,10.27
2022-12-18T09:25:35.445Z,10.28
2022-12-18T09:28:03.761Z,10.32
2022-12-18T09:30:31.141Z,10.38
2022-12-18T09:32:58.321Z,10.48
2022-12-18T09:35:25.460Z,10.44
2022-12-18T09:37:54.782Z,10.50
2022-12-18T09:40:26.443Z,10.65
2022-12-18T09:42:59.283Z,10.71
2022-12-18T09:45:27.483Z,10.71
2022-12-18T09:47:57.361Z,10.85
2022-12-18T09:50:31.732Z,11.01
2022-12-18T09:53:07.920Z,11.24
2022-12-18T09:55:40.704Z,11.56
2022-12-18T09:58:17.541Z,12.14
2022-12-18T10:00:45.120Z,12.55
2022-12-18T10:03:15.326Z,12.87
2022-12-18T10:05:56.140Z,12.89
2022-12-18T10:08:35.720Z,13.19
2022-12-18T10:11:24.039Z,13.63
2022-12-18T10:13:59.144Z,13.69
2022-12-18T10:16:39.524Z,13.77
2022-12-18T10:19:21.521Z,13.90
2022-12-18T10:21:59.846Z,13.86
2022-12-18T10:24:39.439Z,13.76
2022-12-18T10:27:16.243Z,13.79
2022-12-18T10:29:46.800Z,13.79
2022-12-18T10:32:20.641Z,13.80
2022-12-18T10:34:49.402Z,13.72
2022-12-18T10:37:19.361Z,13.72
2022-12-18T10:40:09.541Z,13.63
2022-12-18T10:42:36.740Z,13.50
2022-12-18T10:45:09.460Z,13.55
2022-12-18T10:47:37.639Z,13.51
2022-12-18T10:50:05.640Z,13.66
2022-12-18T10:52:32.700Z,13.91
2022-12-18T10:55:05.384Z,14.03
2022-12-18T10:57:36.080Z,14.13
2022-12-18T11:00:24.100Z,14.31
2022-12-18T11:02:52.522Z,14.25
2022-12-18T11:05:31.687Z,14.17
2022-12-18T11:08:00.561Z,14.12
2022-12-18T11:10:32.821Z,14.01
2022-12-18T11:13:13.819Z,13.94
2022-12-18T11:15:43.225Z,13.83
2022-12-18T11:18:20.340Z,13.65
2022-12-18T11:20:58.307Z,13.46
2022-12-18T11:23:27.921Z,13.36
2022-12-18T11:25:59.403Z,13.31
2022-12-18T11:28:37.373Z,13.14
2022-12-18T11:31:26.530Z,13.03
2022-12-18T11:34:28.029Z,12.98
2022-12-18T11:36:49.800Z,12.89
2022-12-18T11:39:25.787Z,12.83
2022-12-18T11:42:00.281Z,12.97
2022-12-18T11:44:36.921Z,12.97
2022-12-18T11:47:18.140Z,13.05
2022-12-18T11:49:48.879Z,12.96
2022-12-18T11:52:23.680Z,13.02
2022-12-18T11:54:53.040Z,13.27
2022-12-18T11:57:36.087Z,13.37
2022-12-18T12:00:13.008Z,13.54
2022-12-18T12:03:14.924Z,13.43
2022-12-18T12:05:58.626Z,13.44
2022-12-18T12:08:40.949Z,13.45
2022-12-18T12:11:21.519Z,13.44
2022-12-18T12:14:16.782Z,13.61
2022-12-18T12:16:56.560Z,13.52
2022-12-18T12:19:44.941Z,13.37
2022-12-18T12:22:25.841Z,13.40
2022-12-18T12:25:08.780Z,13.50
2022-12-18T12:27:47.635Z,13.36
2022-12-18T12:30:22.755Z,13.33
2022-12-18T12:33:15.916Z,13.16
2022-12-18T12:35:53.414Z,13.28
2022-12-18T12:38:27.575Z,13.17
2022-12-18T12:41:03.361Z,13.28
2022-12-18T12:43:46.048Z,13.05
2022-12-18T12:46:22.813Z,13.13
2022-12-18T12:48:55.057Z,13.21
2022-12-18T12:51:26.853Z,13.21
2022-12-18T12:53:58.338Z,13.20
2022-12-18T12:56:47.179Z,13.18
2022-12-18T12:59:26.198Z,13.14
2022-12-18T13:02:05.767Z,12.99
2022-12-18T13:04:43.714Z,12.71
2022-12-18T13:07:21.336Z,12.95
2022-12-18T13:10:17.143Z,12.79
2022-12-18T13:12:55.879Z,12.75
2022-12-18T13:15:27.140Z,12.58
2022-12-18T13:18:18.754Z,12.73
2022-12-18T13:20:53.186Z,12.72
2022-12-18T13:23:36.339Z,12.67
2022-12-18T13:26:31.377Z,12.44
2022-12-18T13:28:59.678Z,12.32
2022-12-18T13:32:09.737Z,12.25
2022-12-18T13:34:38.895Z,12.29
2022-12-18T13:37:44.285Z,11.91
2022-12-18T13:40:41.056Z,12.01
2022-12-18T13:43:32.276Z,11.98
2022-12-18T13:46:07.635Z,12.07
2022-12-18T13:48:39.495Z,12.11
2022-12-18T13:51:12.175Z,12.14
2022-12-18T13:53:45.779Z,11.98
2022-12-18T13:56:17.795Z,11.90
2022-12-18T13:58:45.028Z,12.00
2022-12-18T14:01:23.713Z,11.97
2022-12-18T14:03:51.515Z,11.95
2022-12-18T14:06:20.335Z,11.85
2022-12-18T14:08:48.600Z,11.76
2022-12-18T14:11:23.823Z,11.69
2022-12-18T14:13:54.216Z,11.65
2022-12-18T14:16:21.509Z,11.57
2022-12-18T14:18:54.775Z,11.59
2022-12-18T14:21:28.815Z,11.49
2022-12-18T14:24:07.818Z,11.41
2022-12-18T14:26:35.183Z,11.51
2022-12-18T14:29:21.586Z,11.50
2022-12-18T14:32:13.338Z,11.46
2022-12-18T14:34:44.295Z,11.17
2022-12-18T14:37:16.307Z,11.32
2022-12-18T14:39:53.988Z,11.31
2022-12-18T14:42:21.317Z,11.24
2022-12-18T14:45:12.896Z,11.05
2022-12-18T14:47:36.287Z,11.11
2022-12-18T14:50:03.756Z,11.05
2022-12-18T14:52:33.515Z,11.06
2022-12-18T14:55:00.915Z,11.00
2022-12-18T14:57:37.356Z,11.00
2022-12-18T15:00:06.858Z,10.95
2022-12-18T15:02:37.792Z,10.94
2022-12-18T15:05:18.737Z,10.92
2022-12-18T15:07:50.047Z,10.93
2022-12-18T15:10:19.756Z,10.89
2022-12-18T15:12:49.817Z,10.86
2022-12-18T15:15:49.927Z,10.85
2022-12-18T15:18:22.216Z,10.79
2022-12-18T15:20:51.694Z,10.76
2022-12-18T15:23:24.318Z,10.72
2022-12-18T15:25:58.319Z,10.67
2022-12-18T15:28:31.099Z,10.64
2022-12-18T15:31:18.783Z,10.50
2022-12-18T15:34:02.557Z,10.53
2022-12-18T15:36:30.397Z,10.48
2022-12-18T15:39:04.660Z,10.45
2022-12-18T15:41:36.007Z,10.38
2022-12-18T15:44:04.877Z,10.40
2022-12-18T15:46:32.384Z,10.38
2022-12-18T15:49:02.659Z,10.36
2022-12-18T15:51:35.676Z,10.37
2022-12-18T15:54:10.168Z,10.33
2022-12-18T15:56:37.336Z,10.26
2022-12-18T15:59:12.135Z,10.22
2022-12-18T16:01:42.725Z,10.19
2022-12-18T16:04:13.459Z,10.18
2022-12-18T16:07:12.680Z,10.14
2022-12-18T16:09:29.479Z,10.18
2022-12-18T16:11:58.755Z,10.16
2022-12-18T16:14:29.038Z,10.14
2022-12-18T16:16:59.656Z,10.13
2022-12-18T16:19:28.035Z,10.16
2022-12-18T16:21:57.515Z,10.22
2022-12-18T16:24:27.515Z,10.24
2022-12-18T16:26:58.335Z,10.21
2022-12-18T16:29:27.016Z,10.16
2022-12-18T16:31:54.416Z,10.35
2022-12-18T16:34:24.999Z,10.30
2022-12-18T16:37:03.119Z,10.28
2022-12-18T16:39:32.714Z,10.24
2022-12-18T16:42:02.650Z,10.29
2022-12-18T16:44:33.537Z,10.27
2022-12-18T16:47:00.996Z,10.27
2022-12-18T16:49:28.416Z,10.23
2022-12-18T16:51:55.617Z,10.25
2022-12-18T16:54:22.856Z,10.25
2022-12-18T16:56:51.494Z,10.23
2022-12-18T16:59:20.296Z,10.27
2022-12-18T17:01:47.628Z,10.28
2022-12-18T17:04:17.351Z,10.26
2022-12-18T17:06:46.397Z,10.26
2022-12-18T17:09:15.629Z,10.27
2022-12-18T17:11:44.075Z,10.25
2022-12-18T17:14:16.076Z,10.26
2022-12-18T17:16:44.794Z,10.20
2022-12-18T17:19:17.016Z,10.23
2022-12-18T17:21:49.428Z,10.31
2022-12-18T17:24:17.376Z,10.17
2022-12-18T17:26:47.615Z,10.21
2022-12-18T17:29:19.416Z,10.27
2022-12-18T17:31:49.150Z,10.40
2022-12-18T17:34:16.416Z,10.32
2022-12-18T17:36:43.879Z,10.39
2022-12-18T17:39:19.394Z,10.41
2022-12-18T17:41:48.496Z,10.47
2022-12-18T17:44:17.374Z,10.39
2022-12-18T17:46:45.420Z,10.21
2022-12-18T17:49:14.894Z,10.30
2022-12-18T17:51:43.086Z,10.35
2022-12-18T17:54:11.295Z,10.32
2022-12-18T17:56:39.098Z,10.31
2022-12-18T17:59:07.213Z,10.31
2022-12-18T18:01:38.378Z,10.34
2022-12-18T18:04:09.905Z,10.25
2022-12-18T18:06:39.320Z,10.10
2022-12-18T18:09:08.166Z,9.98
2022-12-18T18:11:42.416Z,10.07
2022-12-18T18:14:14.782Z,10.26
2022-12-18T18:16:44.456Z,10.30
2022-12-18T18:19:14.076Z,10.29
2022-12-18T18:21:44.117Z,10.27
2022-12-18T18:24:14.715Z,10.28
2022-12-18T18:26:42.779Z,10.28
2022-12-18T18:29:12.955Z,10.28
2022-12-18T18:31:41.605Z,10.22
2022-12-18T18:34:09.015Z,10.23
2022-12-18T18:36:36.237Z,10.26
2022-12-18T18:39:04.937Z,10.25
2022-12-18T18:41:33.943Z,10.17
2022-12-18T18:44:01.255Z,10.16
2022-12-18T18:46:28.477Z,10.13
2022-12-18T18:48:56.482Z,10.09
2022-12-18T18:51:24.056Z,10.12
2022-12-18T18:53:53.534Z,10.12
2022-12-18T18:59:11.773Z,10.09
2022-12-18T19:01:39.213Z,10.08
2022-12-18T19:04:06.794Z,10.14
2022-12-18T19:06:34.215Z,10.17
2022-12-18T19:09:03.994Z,10.19
2022-12-18T19:11:36.225Z,10.17
2022-12-18T19:14:05.295Z,10.21
2022-12-18T19:16:34.045Z,10.23
2022-12-18T19:19:02.312Z,10.22
2022-12-18T19:21:31.819Z,10.19
2022-12-18T19:24:02.753Z,10.22
2022-12-18T19:26:32.796Z,10.24
2022-12-18T19:29:04.753Z,10.28
2022-12-18T19:31:36.099Z,10.28
2022-12-18T19:34:05.113Z,10.25
2022-12-18T19:36:33.699Z,10.29
2022-12-18T19:39:02.277Z,10.26
2022-12-18T19:41:31.327Z,10.22
2022-12-18T19:44:07.467Z,10.08
2022-12-18T19:46:35.776Z,10.24
2022-12-18T19:49:04.446Z,10.29
2022-12-18T19:51:32.258Z,10.32
2022-12-18T19:54:02.009Z,10.36
2022-12-18T19:56:32.014Z,10.34
2022-12-18T19:59:02.095Z,10.34
2022-12-18T20:01:31.017Z,10.36
2022-12-18T20:03:59.554Z,10.45
2022-12-18T20:06:30.014Z,10.49
2022-12-18T20:09:01.420Z,10.53
2022-12-18T20:11:29.094Z,10.57
2022-12-18T20:13:56.233Z,10.56
2022-12-18T20:16:25.107Z,10.53
2022-12-18T20:18:52.979Z,10.61
2022-12-18T20:21:20.316Z,10.58
2022-12-18T20:23:47.559Z,10.57
2022-12-18T20:26:14.667Z,10.60
2022-12-18T20:28:41.956Z,10.59
2022-12-18T20:31:10.465Z,10.61
2022-12-18T20:33:42.710Z,10.63
2022-12-18T20:36:15.249Z,10.69
2022-12-18T20:38:43.895Z,10.69
2022-12-18T20:41:16.231Z,10.74
2022-12-18T20:43:44.497Z,10.57
2022-12-18T20:46:14.489Z,10.66
2022-12-18T20:48:44.618Z,10.77
2022-12-18T20:51:14.375Z,10.68
2022-12-18T20:53:42.589Z,10.67
2022-12-18T20:56:13.375Z,10.66
2022-12-18T20:58:45.794Z,10.72
2022-12-18T21:01:15.031Z,10.78
2022-12-18T21:03:45.786Z,10.82
2022-12-18T21:06:14.825Z,10.55
2022-12-18T21:08:42.655Z,10.76
2022-12-18T21:11:15.465Z,10.78
2022-12-18T21:13:44.535Z,10.78
2022-12-18T21:16:11.675Z,10.79
2022-12-18T21:18:38.814Z,10.75
2022-12-18T21:21:08.014Z,10.81
2022-12-18T21:23:35.377Z,10.84
2022-12-18T21:26:16.187Z,10.87
2022-12-18T21:28:43.414Z,10.86
2022-12-18T21:31:10.769Z,10.86
2022-12-18T21:33:39.274Z,10.90
2022-12-18T21:36:09.434Z,10.88
2022-12-18T21:38:36.720Z,10.93
2022-12-18T21:41:06.835Z,10.81
2022-12-18T21:43:34.195Z,10.97
2022-12-18T21:46:01.395Z,11.03
2022-12-18T21:48:28.527Z,11.04
2022-12-18T21:50:55.614Z,10.98
2022-12-18T21:53:24.154Z,10.97
2022-12-18T21:55:58.516Z,10.94
2022-12-18T21:58:26.315Z,10.91
2022-12-18T22:00:53.474Z,10.93
2022-12-18T22:03:20.782Z,10.98
2022-12-18T22:05:50.586Z,11.02
2022-12-18T22:08:36.209Z,11.06
2022-12-18T22:11:09.509Z,11.04
2022-12-18T22:13:36.809Z,11.07
2022-12-18T22:16:04.155Z,11.08
2022-12-18T22:18:31.229Z,11.09
2022-12-18T22:21:01.932Z,11.05
2022-12-18T22:23:29.067Z,11.04
2022-12-18T22:25:57.661Z,11.04
2022-12-18T22:28:24.861Z,10.99
2022-12-18T22:30:59.337Z,10.98
2022-12-18T22:33:27.726Z,10.92
2022-12-18T22:35:54.886Z,10.96
2022-12-18T22:38:22.021Z,10.97
2022-12-18T22:40:49.080Z,10.93
2022-12-18T22:43:17.600Z,10.90
2022-12-18T22:45:44.741Z,10.91
2022-12-18T22:48:12.021Z,10.90
2022-12-18T22:50:40.215Z,10.91
2022-12-18T22:53:07.422Z,10.94
2022-12-18T22:55:34.760Z,10.99
2022-12-18T22:58:01.882Z,11.00
2022-12-18T23:00:30.503Z,11.03
2022-12-18T23:03:00.699Z,10.91
2022-12-18T23:05:30.305Z,10.98
2022-12-18T23:07:58.067Z,10.99
2022-12-18T23:10:25.343Z,11.03
2022-12-18T23:12:52.554Z,11.01
2022-12-18T23:15:27.599Z,10.97
2022-12-18T23:17:57.476Z,11.01
2022-12-18T23:20:25.069Z,10.97
2022-12-18T23:22:52.251Z,10.97
2022-12-18T23:25:19.649Z,10.99
2022-12-18T23:27:46.882Z,10.99
2022-12-18T23:30:14.308Z,10.99
2022-12-18T23:32:41.412Z,10.98
2022-12-18T23:35:10.474Z,11.02
2022-12-18T23:40:29.451Z,11.00
2022-12-18T23:42:56.752Z,10.98
2022-12-18T23:45:23.850Z,11.03
2022-12-18T23:47:51.450Z,10.97
2022-12-18T23:50:24.539Z,11.10
2022-12-18T23:53:04.911Z,11.22
2022-12-18T23:55:34.435Z,11.21
2022-12-18T23:58:01.589Z,11.24
